Tatitlek, Alaska
Current Conditions -  °F | °C
As of 12:36 PM on Thursday 18 Dec 2014 (Local Time) from PAVD Reporting Station
Broken Clouds Broken Clouds  
Wind Chill: 24°   Ceiling: 20000
Heat Index: 32°   Visibility: 10mi
Dew Point: 16°   Wind: 10mph
Humidity: 51%   Direction: 70°ENE
Pressure: 29.44"   Gusts: NA
Location:  60.88°N, 146.68°W
Report Text: PAVD 182136Z 07009KT 020V090 10SM SCT150 BKN200 00/M09 A2944 RMK AO1 2047Z WEA: NONE BLSN FRM MT TOPS TWR WND 10009KT 070V130
Loading
Personal Weather Stations






























Interactive Weather Map New forecast layout! Learn more

10-Day Weather Forecast

Advertisements
Track Severe Weather on mobile